Time,TemperatureF,DewpointF,PressureIn,WindDirection,WindDirectionDegrees,WindSpeedMPH,WindSpeedGustMPH,Humidity,HourlyPrecipIn,Conditions,Clouds,dailyrainin,SoftwareType,DateUTC
2013-09-06 00:23:00,67.0,63.0,30.18,ESE,103,0.0,0.0,86,0.00,,,0.00,,2013-09-06 05:23:00,
2013-09-06 00:52:00,67.0,63.0,30.18,ESE,103,0.0,0.0,87,0.00,,,0.00,,2013-09-06 05:52:00,
2013-09-06 01:11:00,67.0,63.0,30.18,ESE,103,0.0,0.0,87,0.00,,,0.00,,2013-09-06 06:11:00,
2013-09-06 01:22:00,66.0,62.0,30.18,ESE,103,0.0,0.0,88,0.00,,,0.00,,2013-09-06 06:22:00,
2013-09-06 01:53:00,66.0,63.0,30.18,ESE,103,0.0,0.0,89,0.00,,,0.00,,2013-09-06 06:53:00,
2013-09-06 02:11:00,66.0,63.0,30.18,ESE,103,0.0,0.0,89,0.00,,,0.00,,2013-09-06 07:11:00,
2013-09-06 02:23:00,66.0,63.0,30.18,ESE,103,0.0,0.0,89,0.00,,,0.00,,2013-09-06 07:23:00,
2013-09-06 02:52:00,65.0,62.0,30.17,ESE,103,0.0,0.0,91,0.00,,,0.00,,2013-09-06 07:52:00,
2013-09-06 03:22:00,65.0,63.0,30.16,ESE,103,0.0,0.0,92,0.00,,,0.00,,2013-09-06 08:22:00,
2013-09-06 03:52:00,65.0,63.0,30.16,ESE,103,0.0,0.0,93,0.00,,,0.00,,2013-09-06 08:52:00,
2013-09-06 04:22:00,65.0,63.0,30.16,ESE,103,0.0,0.0,94,0.00,,,0.00,,2013-09-06 09:22:00,
2013-09-06 04:54:00,65.0,64.0,30.16,ESE,103,0.0,0.0,95,0.00,,,0.00,,2013-09-06 09:54:00,
2013-09-06 05:23:00,65.0,64.0,30.16,ESE,103,0.0,0.0,95,0.00,,,0.00,,2013-09-06 10:23:00,
2013-09-06 05:53:00,65.0,64.0,30.16,ESE,103,0.0,0.0,95,0.00,,,0.00,,2013-09-06 10:53:00,
2013-09-06 06:12:00,65.0,64.0,30.16,ESE,103,0.0,0.0,95,0.00,,,0.00,,2013-09-06 11:12:00,
2013-09-06 06:22:00,65.0,64.0,30.16,ESE,103,0.0,0.0,96,0.00,,,0.00,,2013-09-06 11:22:00,
2013-09-06 06:52:00,65.0,64.0,30.18,ESE,103,0.0,0.0,96,0.00,,,0.00,,2013-09-06 11:52:00,
2013-09-06 07:21:00,65.0,64.0,30.19,ESE,103,0.0,0.0,96,0.00,,,0.00,,2013-09-06 12:21:00,
2013-09-06 07:52:00,65.0,64.0,30.20,ESE,103,0.0,0.0,97,0.00,,,0.00,,2013-09-06 12:52:00,
2013-09-06 08:11:00,66.0,65.0,30.21,ESE,103,0.0,0.0,97,0.00,,,0.00,,2013-09-06 13:11:00,
2013-09-06 08:22:00,67.0,66.0,30.20,ESE,103,0.0,0.0,98,0.00,,,0.00,,2013-09-06 13:22:00,
2013-09-06 08:52:00,69.0,68.0,30.21,ESE,103,0.0,0.0,98,0.00,,,0.00,,2013-09-06 13:52:00,
2013-09-06 09:11:00,70.0,69.0,30.20,ESE,103,1.0,1.0,98,0.00,,,0.00,,2013-09-06 14:11:00,
2013-09-06 09:22:00,71.0,70.0,30.20,ESE,118,0.0,0.0,98,0.00,,,0.00,,2013-09-06 14:22:00,
2013-09-06 09:52:00,73.0,72.0,30.20,SSW,194,0.0,1.0,96,0.00,,,0.00,,2013-09-06 14:52:00,
2013-09-06 10:22:00,75.0,68.0,30.20,NNE,32,1.0,2.0,79,0.00,,,0.00,,2013-09-06 15:22:00,
2013-09-06 10:53:00,79.0,68.0,30.20,South,183,1.0,1.0,70,0.00,,,0.00,,2013-09-06 15:53:00,
2013-09-06 11:24:00,81.0,68.0,30.19,SE,146,0.0,1.0,64,0.00,,,0.00,,2013-09-06 16:24:00,
2013-09-06 11:53:00,83.0,69.0,30.19,SW,219,0.0,2.0,62,0.00,,,0.00,,2013-09-06 16:53:00,
2013-09-06 12:24:00,84.0,68.0,30.18,WSW,244,1.0,2.0,58,0.00,,,0.00,,2013-09-06 17:24:00,
2013-09-06 12:53:00,85.0,66.0,30.17,ENE,57,1.0,2.0,53,0.00,,,0.00,,2013-09-06 17:53:00,
2013-09-06 13:12:00,86.0,68.0,30.16,South,189,1.0,1.0,55,0.00,,,0.00,,2013-09-06 18:12:00,
2013-09-06 13:22:00,86.0,68.0,30.16,SW,214,0.0,1.0,55,0.00,,,0.00,,2013-09-06 18:22:00,
2013-09-06 13:52:00,86.0,68.0,30.14,SW,219,0.0,3.0,55,0.00,,,0.00,,2013-09-06 18:52:00,
2013-09-06 14:12:00,86.0,67.0,30.14,SE,130,1.0,1.0,53,0.00,,,0.00,,2013-09-06 19:12:00,
2013-09-06 14:22:00,87.0,66.0,30.13,WSW,252,0.0,2.0,50,0.00,,,0.00,,2013-09-06 19:22:00,
2013-09-06 14:52:00,87.0,66.0,30.12,ESE,119,0.0,0.0,50,0.00,,,0.00,,2013-09-06 19:52:00,
2013-09-06 15:23:00,88.0,67.0,30.11,SSE,167,0.0,0.0,50,0.00,,,0.00,,2013-09-06 20:23:00,
2013-09-06 15:52:00,88.0,66.0,30.10,South,181,0.0,0.0,48,0.00,,,0.00,,2013-09-06 20:52:00,
2013-09-06 16:01:00,88.0,66.0,30.10,South,181,0.0,0.0,48,0.00,,,0.00,,2013-09-06 21:01:00,
2013-09-06 16:12:00,88.0,66.0,30.10,South,181,0.0,0.0,48,0.00,,,0.00,,2013-09-06 21:12:00,
2013-09-06 16:22:00,88.0,66.0,30.10,South,181,0.0,0.0,48,0.00,,,0.00,,2013-09-06 21:22:00,
2013-09-06 21:52:00,73.0,67.0,30.08,SSW,192,0.0,0.0,82,0.00,,,0.00,,2013-09-07 02:52:00,
2013-09-06 22:23:00,72.0,67.0,30.08,SSW,192,0.0,0.0,85,0.00,,,0.00,,2013-09-07 03:23:00,
2013-09-06 22:55:00,71.0,67.0,30.07,SSW,192,0.0,0.0,86,0.00,,,0.00,,2013-09-07 03:55:00,
2013-09-06 23:23:00,70.0,66.0,30.07,SSW,192,0.0,0.0,87,0.00,,,0.00,,2013-09-07 04:23:00,
2013-09-06 23:54:00,70.0,67.0,30.06,SSW,192,0.0,0.0,89,0.00,,,0.00,,2013-09-07 04:54:00,